Observations for TEES-SIDE, United Kingdom (EGNV)

EGNV 201650Z 07008KT 9999 FEW020 SCT044 14/09 Q1017 
EGNV 201620Z 09008KT 9999 FEW020 SCT032 13/09 Q1017 
EGNV 201550Z 09008KT 060V120 9999 SCT022 SCT036 13/09 Q1017 
EGNV 201520Z 08007KT 040V110 9999 SCT018 13/09 Q1017
EGNV 201450Z 08010KT 050V110 9999 BKN017 14/09 Q1017
EGNV 201420Z 06008KT 9999 FEW015 SCT021 14/10 Q1016 
EGNV 201350Z 30011KT 9999 FEW015 SCT035 20/10 Q1016 
EGNV 201320Z 30014KT 9999 FEW015 SCT040 18/11 Q1016 
EGNV 201250Z 28014KT 9999 FEW015 BKN038 18/10 Q1015 
EGNV 201220Z 25012KT 9999 FEW018 SCT036 17/12 Q1015 
EGNV 201150Z 26015KT 9999 8000E -RA SCT020 SCT040 18/13 Q1014   
EGNV 201120Z 25014KT 9999 FEW018 SCT021 18/13 Q1014 
EGNV 201050Z 25014KT 220V280 9999 FEW018 BKN025 18/13 Q1014 
EGNV 201020Z 23018KT 9999 FEW018 BKN025 18/13 Q1013 
EGNV 200950Z 23018KT 9999 FEW015 BKN028 18/13 Q1013 
EGNV 200920Z 23020G30KT 9999 FEW015 BKN030 18/13 Q1013  
EGNV 200850Z 24018KT 9999 FEW015 SCT022 BKN040 18/14 Q1013  
EGNV 200820Z 22012KT 200V260 9000 FEW014 SCT020 BKN035 17/14 Q1013  
EGNV 200750Z 22015KT 8000 VCSH SCT010 BKN022 17/15 Q1013
EGNV 200720Z 20012KT 4000 -RA HZ FEW012 BKN020 16/14 Q1012  
EGNV 200650Z 20015KT 3500 -RA FEW017 BKN020 16/14 Q1012 
EGNV 200620Z 19015KT 9999 FEW017 BKN032 16/14 Q1012 
EGNV 200550Z 20018KT 9999 -SHRA FEW012 BKN035 17/14 Q1012   
EGNV 200520Z 21022KT 9999 VCSH FEW020 BKN035 17/13 Q1012
EGNV 200450Z 21019KT 9999 FEW017 BKN023 17/13 Q1012 
EGNV 192020Z 19009KT 9999 SCT030 16/14 Q1016
EGNV 191950Z 18008KT 9999 FEW021 SCT039 16/14 Q1016 
EGNV 191920Z 20007KT 9999 SCT025 16/14 Q1016
EGNV 191850Z 20004KT 9999 SCT026 16/14 Q1017
EGNV 191820Z 22005KT 9000 VCSH FEW019 SCT023 16/13 Q1017
EGNV 191750Z 18005KT 9999 SCT022 16/12 Q1017
EGNV 191720Z 19005KT 9999 SCT021 16/11 Q1018
EGNV 191650Z 23004KT 190V250 9999 SCT023 16/10 Q1018
EGNV 191620Z 25006KT 9999 SCT029 16/10 Q1019